Airfield :
LOGIN :

Register | Disclaimer

   EN    FR    IT 

 










Legend :    VFR   Marginal VFR   IFR   Intensive IFR   Very Intensive IFR
Visi :
Ceiling :
>= 8 km
>= 3000ft
5 to 8 km
1000 to 3000 ft
1500m to 5 km
500 to 1000 ft
800 to 1500m
200 to 500 ft
< 800m
< 200 ft
Symbols :   Thunderstorms  Fog  Heavy snow  Heavy precipitations  Wind > 20 kt
SIGMETs :     Misc.  Thunderstorms  Icing  Turbulence  Mountain Waves  Volcanic Ashes






- Airport Elevation : 26 ft
- IATA code : GLA


EGPF - Glasgow

CURRENT METAR :
  • 021350Z AUTO 25023G33KT 9999 BKN025 OVC033 10/06 Q1016

EXPIRED METARs :
  • 021320Z AUTO 25024KT 9999 SCT021 OVC031 10/07 Q1016
  • 021250Z 25022KT 9999 BKN015 BKN021 OVC034 10/08 Q1016
  • 021220Z 25023G37KT 9999 BKN015 OVC027 10/08 Q1016
  • 021150Z AUTO 25023KT 9999 BKN017 OVC034 10/08 Q1016
  • 021120Z AUTO 26021G32KT 9999 FEW020 SCT025 BKN030 10/07 Q1016
  • 021050Z AUTO 26023G33KT 9999 SCT023 BKN028 10/07 Q1016

TAF TAF EGPF
Valid from the 02 at 12:00 until the 03 at 12:00 UTC


021057Z 0212/0312 25019G33KT 9999 SCT015 BKN026
TEMPO 0212/0213 8000 -RA BKN011
PROB30
TEMPO 0213/0218 BKN014
TEMPO 0218/0301 8000 -RA BKN012
PROB30
TEMPO 0221/0301 4000 RA BKN008
BECMG 0302/0305 24009KT
TEMPO 0308/0312 7000 -RA BKN012
PROB30
TEMPO 0309/0312 4000 RADZ BKN008
ATIS : +44 141 887 7449



MET'MAP, your aeronautical weather chart ! - Copyright ORBIFLY December 2007 - Disclaimer

ORBIFLY MET'MAP TEAM :

Programming & Development : Alexandra Zaïnal
Original concept : Baudouin d'Aumeries
Technical & hardware support : Manuel Goepfert
Assistance : Marc-Olivier Méhu




SOURCES & CREDITS :

   NOAA